Time;durP1;ratioP1;P1;durP2;ratioP2;P2;SDS_P1;SDS_P2;PMS_P1;PMS_P2;Temp;Humidity;BMP_temperature;BMP_pressure;BME280_temperature;BME280_humidity;BME280_pressure;Samples;Min_cycle;Max_cycle;Signal;HPM_P1;HPM_P2
2023/04/25 05:51:57;;;;;;;4.13;2.17;;;;;;;;;;10632959;27;20494;-83
2023/04/25 05:56:58;;;;;;;;;;;;;;;;;;10630641;28;20114;-83
2023/04/25 06:02:00;;;;;;;4.43;2.10;;;;;;;;;;10629544;28;19904;-80
2023/04/25 06:07:01;;;;;;;7.40;2.58;;;;;;;;;;10623253;28;20031;-81
2023/04/25 06:12:03;;;;;;;;;;;;;;;;;;10622380;28;20024;-80
2023/04/25 06:17:08;;;;;;;7.28;2.92;;;;;;;;;;10621455;28;19999;-80
2023/04/25 06:22:09;;;;;;;5.07;2.42;;;;;;;;;;10622041;28;20023;-80
2023/04/25 06:27:10;;;;;;;;;;;;;;;;;;10624033;28;20026;-80
2023/04/25 06:32:11;;;;;;;7.35;3.03;;;;;;;;;;10622985;28;19913;-81
2023/04/25 06:37:12;;;;;;;;;;;;;;;;;;10626209;28;20153;-79
2023/04/25 06:42:13;;;;;;;5.40;2.38;;;;;;;;;;10631488;28;19903;-80
2023/04/25 06:47:14;;;;;;;;;;;;;;;;;;10621979;28;20023;-80
2023/04/25 06:52:15;;;;;;;8.48;3.70;;;;;;;;;;10621046;28;19907;-80
2023/04/25 06:57:16;;;;;;;5.10;2.30;;;;;;;;;;10620294;28;20061;-80
2023/04/25 07:02:17;;;;;;;3.05;1.65;;;;;;;;;;10597825;28;20019;-79
2023/04/25 07:07:18;;;;;;;;;;;;;;;;;;10593589;28;20079;-80
2023/04/25 07:12:19;;;;;;;5.97;2.42;;;;;;;;;;10591921;28;19904;-78
2023/04/25 07:17:21;;;;;;;5.13;2.20;;;;;;;;;;10591176;28;20346;-77
2023/04/25 07:22:22;;;;;;;4.78;2.00;;;;;;;;;;10596949;28;20068;-79
2023/04/25 07:27:23;;;;;;;7.07;2.47;;;;;;;;;;10594433;28;20153;-80
2023/04/25 07:32:24;;;;;;;5.15;2.70;;;;;;;;;;10596340;28;20084;-83
2023/04/25 07:37:26;;;;;;;8.00;3.40;;;;;;;;;;10600936;28;20099;-82
2023/04/25 07:42:27;;;;;;;7.78;4.38;;;;;;;;;;10601826;28;20081;-84
2023/04/25 07:47:28;;;;;;;;;;;;;;;;;;10601865;28;20539;-83
2023/04/25 07:52:29;;;;;;;7.72;4.95;;;;;;;;;;10627521;28;19904;-82
2023/04/25 07:57:30;;;;;;;9.80;5.45;;;;;;;;;;10621657;28;20036;-83
2023/04/25 08:02:31;;;;;;;6.57;3.50;;;;;;;;;;10600200;28;20031;-80
2023/04/25 08:07:32;;;;;;;8.60;4.30;;;;;;;;;;10594630;28;20024;-81
2023/04/25 08:12:34;;;;;;;7.60;4.07;;;;;;;;;;10593530;28;20024;-81
2023/04/25 08:17:35;;;;;;;9.00;5.18;;;;;;;;;;10596964;28;20039;-81
2023/04/25 08:22:36;;;;;;;7.18;4.15;;;;;;;;;;10610939;28;20111;-80
2023/04/25 08:27:37;;;;;;;5.32;3.10;;;;;;;;;;10601645;28;20027;-82
2023/04/25 08:32:38;;;;;;;5.47;2.50;;;;;;;;;;10592922;28;20053;-80
2023/04/25 08:37:39;;;;;;;8.10;3.53;;;;;;;;;;10593566;28;20023;-80
2023/04/25 08:42:41;;;;;;;6.85;2.88;;;;;;;;;;10591977;28;20024;-82
2023/04/25 08:47:43;;;;;;;7.75;3.55;;;;;;;;;;10590388;28;20028;-82
2023/04/25 08:52:45;;;;;;;7.00;3.92;;;;;;;;;;10590565;28;20034;-80
2023/04/25 08:57:47;;;;;;;8.20;3.72;;;;;;;;;;10590241;28;20125;-80
2023/04/25 09:02:48;;;;;;;8.45;3.40;;;;;;;;;;10595366;28;20389;-79
2023/04/25 09:07:49;;;;;;;6.97;3.35;;;;;;;;;;10599045;28;20035;-80
2023/04/25 09:13:08;;;;;;;5.93;2.83;;;;;;;;;;10600511;28;20389;-79
2023/04/25 09:18:09;;;;;;;7.10;4.03;;;;;;;;;;10609810;28;20080;-80
2023/04/25 09:23:10;;;;;;;7.07;2.80;;;;;;;;;;10602388;28;20036;-81
2023/04/25 09:28:11;;;;;;;6.57;2.25;;;;;;;;;;10595893;28;20049;-80
2023/04/25 09:33:13;;;;;;;5.22;2.60;;;;;;;;;;10596027;28;20016;-80
2023/04/25 09:38:18;;;;;;;8.65;2.85;;;;;;;;;;10596988;28;20023;-82
2023/04/25 09:43:20;;;;;;;9.75;2.60;;;;;;;;;;10586832;28;20117;-86
2023/04/25 09:48:22;;;;;;;11.50;2.50;;;;;;;;;;10601475;28;20028;-83
2023/04/25 09:53:23;;;;;;;9.82;2.60;;;;;;;;;;10599288;28;20028;-84
2023/04/25 09:58:25;;;;;;;7.47;2.45;;;;;;;;;;10599952;28;20063;-85
2023/04/25 10:03:26;;;;;;;7.97;2.03;;;;;;;;;;10598912;28;20024;-83
2023/04/25 10:14:20;;;;;;;4.75;1.85;;;;;;;;;;10595194;28;20019;-83
2023/04/25 10:19:22;;;;;;;5.28;2.15;;;;;;;;;;10599700;28;20366;-84
2023/04/25 10:24:23;;;;;;;5.88;2.55;;;;;;;;;;10603810;28;20069;-84
2023/04/25 10:29:25;;;;;;;4.78;1.67;;;;;;;;;;10618694;28;20091;-81
2023/04/25 10:34:42;;;;;;;5.28;1.80;;;;;;;;;;10595316;28;20019;-83
2023/04/25 10:39:43;;;;;;;5.63;1.80;;;;;;;;;;10602742;28;20023;-83
2023/04/25 10:45:01;;;;;;;6.03;1.85;;;;;;;;;;10601190;28;20031;-82
2023/04/25 10:50:05;;;;;;;5.50;2.08;;;;;;;;;;10599336;28;20489;-83
2023/04/25 10:55:07;;;;;;;4.38;2.10;;;;;;;;;;10602466;28;20042;-81
2023/04/25 11:00:15;;;;;;;4.40;1.70;;;;;;;;;;10604251;28;20047;-82
2023/04/25 11:05:21;;;;;;;5.78;2.63;;;;;;;;;;10622647;28;20024;-82
2023/04/25 11:10:25;;;;;;;4.32;1.42;;;;;;;;;;10616291;28;20024;-82
2023/04/25 11:15:27;;;;;;;5.35;2.22;;;;;;;;;;10614914;28;20030;-83
2023/04/25 11:20:28;;;;;;;3.60;1.30;;;;;;;;;;10620315;28;20068;-82
2023/04/25 11:25:30;;;;;;;3.30;1.48;;;;;;;;;;10601070;28;20047;-81
2023/04/25 11:30:31;;;;;;;4.85;1.48;;;;;;;;;;10603449;28;20469;-82
2023/04/25 11:35:33;;;;;;;2.97;1.45;;;;;;;;;;10602342;28;20019;-82
2023/04/25 11:40:34;;;;;;;2.75;1.50;;;;;;;;;;10600779;28;20023;-82
2023/04/25 11:45:37;;;;;;;2.88;1.30;;;;;;;;;;10601065;28;20032;-83
2023/04/25 11:50:39;;;;;;;2.75;1.27;;;;;;;;;;10598952;28;20035;-82
2023/04/25 11:55:40;;;;;;;2.40;0.88;;;;;;;;;;10599989;28;20046;-82
2023/04/25 12:00:43;;;;;;;2.83;1.20;;;;;;;;;;10599808;28;20046;-81
2023/04/25 12:05:45;;;;;;;2.15;1.00;;;;;;;;;;10596869;28;20073;-82
2023/04/25 12:10:46;;;;;;;2.67;0.80;;;;;;;;;;10597046;28;20024;-80
2023/04/25 12:15:48;;;;;;;2.85;1.20;;;;;;;;;;10596010;28;20019;-81
2023/04/25 12:20:49;;;;;;;2.85;1.10;;;;;;;;;;10591010;28;20024;-80
2023/04/25 12:25:50;;;;;;;3.83;1.10;;;;;;;;;;10594352;28;20430;-82
2023/04/25 12:30:51;;;;;;;;;;;;;;;;;;10593646;28;20119;-80
2023/04/25 12:35:53;;;;;;;2.45;1.20;;;;;;;;;;10591536;28;19914;-82
2023/04/25 12:40:54;;;;;;;2.72;0.90;;;;;;;;;;10594724;28;20051;-82
2023/04/25 12:45:56;;;;;;;2.90;1.10;;;;;;;;;;10596220;28;20412;-81
2023/04/25 12:50:57;;;;;;;2.58;1.15;;;;;;;;;;10593138;28;20036;-81
2023/04/25 12:55:58;;;;;;;2.30;1.10;;;;;;;;;;10594475;28;20031;-81
2023/04/25 13:00:59;;;;;;;;;;;;;;;;;;10593370;28;20031;-82
2023/04/25 13:06:00;;;;;;;1.75;0.88;;;;;;;;;;10591447;28;19903;-81
2023/04/25 13:11:01;;;;;;;3.25;1.00;;;;;;;;;;10586762;28;20063;-80
2023/04/25 13:16:02;;;;;;;3.08;1.10;;;;;;;;;;10596390;28;20033;-78
2023/04/25 13:21:04;;;;;;;3.75;1.13;;;;;;;;;;10608040;28;20030;-82
2023/04/25 13:26:05;;;;;;;3.45;1.10;;;;;;;;;;10589199;28;20039;-82
2023/04/25 13:31:06;;;;;;;1.95;0.82;;;;;;;;;;10589506;28;20464;-81
2023/04/25 13:36:07;;;;;;;2.63;1.15;;;;;;;;;;10588659;28;20487;-82
2023/04/25 13:41:11;;;;;;;4.22;1.42;;;;;;;;;;10587598;28;20023;-82
2023/04/25 13:46:13;;;;;;;3.97;1.35;;;;;;;;;;10596040;28;20023;-82
2023/04/25 13:51:14;;;;;;;3.28;1.15;;;;;;;;;;10605294;28;20083;-81
2023/04/25 13:56:15;;;;;;;2.63;1.00;;;;;;;;;;10609192;28;20024;-79
2023/04/25 14:01:16;;;;;;;3.90;1.00;;;;;;;;;;10596274;28;20023;-79
2023/04/25 14:06:22;;;;;;;4.10;1.02;;;;;;;;;;10593144;28;20389;-78
2023/04/25 14:11:23;;;;;;;3.03;1.20;;;;;;;;;;10595612;28;20027;-79
2023/04/25 14:16:24;;;;;;;2.35;1.00;;;;;;;;;;10594537;28;20617;-80
2023/04/25 14:21:26;;;;;;;3.38;1.20;;;;;;;;;;10598865;28;20086;-80
2023/04/25 14:26:27;;;;;;;2.63;1.10;;;;;;;;;;10597371;28;20028;-82
2023/04/25 14:31:28;;;;;;;5.18;2.95;;;;;;;;;;10593482;28;20122;-82
2023/04/25 14:36:30;;;;;;;2.88;1.00;;;;;;;;;;10594063;28;20049;-84
2023/04/25 14:41:31;;;;;;;2.70;1.20;;;;;;;;;;10595306;28;20099;-81
2023/04/25 14:46:32;;;;;;;3.33;1.30;;;;;;;;;;10595558;28;20023;-80
2023/04/25 14:51:33;;;;;;;4.22;0.95;;;;;;;;;;10601642;28;20032;-82
2023/04/25 14:56:35;;;;;;;;;;;;;;;;;;10606653;28;20498;-82
2023/04/25 15:01:36;;;;;;;6.57;3.15;;;;;;;;;;10605016;28;19941;-80
2023/04/25 15:06:37;;;;;;;;;;;;;;;;;;10600120;28;20042;-81
2023/04/25 15:11:38;;;;;;;4.10;1.42;;;;;;;;;;10605979;28;19907;-85
2023/04/25 15:16:40;;;;;;;2.35;1.05;;;;;;;;;;10608542;28;20094;-82
2023/04/25 15:21:41;;;;;;;2.42;0.95;;;;;;;;;;10600232;28;20023;-82
2023/04/25 15:26:42;;;;;;;3.50;1.25;;;;;;;;;;10602661;28;20030;-81
2023/04/25 15:31:43;;;;;;;2.38;1.40;;;;;;;;;;10600149;28;20051;-80
2023/04/25 15:36:44;;;;;;;2.65;1.10;;;;;;;;;;10604576;28;20490;-81
2023/04/25 15:41:45;;;;;;;2.15;0.85;;;;;;;;;;10600551;28;20034;-80
2023/04/25 15:46:46;;;;;;;3.33;1.65;;;;;;;;;;10599077;28;20031;-81
2023/04/25 15:51:50;;;;;;;2.97;1.23;;;;;;;;;;10601584;28;20077;-82
2023/04/25 15:56:51;;;;;;;3.17;1.27;;;;;;;;;;10599802;28;20367;-82
2023/04/25 16:01:52;;;;;;;;;;;;;;;;;;10599563;28;20024;-81
2023/04/25 16:06:53;;;;;;;5.53;2.38;;;;;;;;;;10599711;28;19910;-82
2023/04/25 16:11:54;;;;;;;;;;;;;;;;;;10599965;28;20370;-81
2023/04/25 16:16:55;;;;;;;4.13;1.33;;;;;;;;;;10594163;28;19903;-81
2023/04/25 16:21:56;;;;;;;;;;;;;;;;;;10593345;28;20413;-80
2023/04/25 16:26:57;;;;;;;4.03;1.20;;;;;;;;;;10601574;28;19995;-80
2023/04/25 16:31:59;;;;;;;3.78;1.95;;;;;;;;;;10598732;28;20026;-82
2023/04/25 16:37:00;;;;;;;4.10;1.20;;;;;;;;;;10592586;28;20471;-81
2023/04/25 16:42:01;;;;;;;4.03;1.20;;;;;;;;;;10596901;28;20431;-82
2023/04/25 16:47:03;;;;;;;;;;;;;;;;;;10596105;28;20031;-81
2023/04/25 16:52:04;;;;;;;4.22;1.35;;;;;;;;;;10592648;28;19908;-81
2023/04/25 16:57:09;;;;;;;3.05;1.10;;;;;;;;;;10593870;28;20023;-80
2023/04/25 17:02:11;;;;;;;1.92;0.90;;;;;;;;;;10595869;28;20047;-80
2023/04/25 17:07:12;;;;;;;2.60;0.95;;;;;;;;;;10596415;28;20095;-80
2023/04/25 17:12:13;;;;;;;;;;;;;;;;;;10600372;28;20019;-80
2023/04/25 17:17:15;;;;;;;3.17;1.20;;;;;;;;;;10592485;28;19904;-81
2023/04/25 17:22:16;;;;;;;3.05;1.38;;;;;;;;;;10593262;28;20019;-80
2023/04/25 17:27:17;;;;;;;;;;;;;;;;;;10592197;28;20069;-81
2023/04/25 17:32:18;;;;;;;3.38;1.40;;;;;;;;;;10590236;28;19952;-81
2023/04/25 17:37:20;;;;;;;;;;;;;;;;;;10591240;28;20027;-81
2023/04/25 17:42:21;;;;;;;4.30;1.70;;;;;;;;;;10589012;28;20004;-80
2023/04/25 17:47:22;;;;;;;;;;;;;;;;;;10589530;28;20054;-80
2023/04/25 17:52:24;;;;;;;4.93;2.40;;;;;;;;;;10610915;28;19939;-81
2023/04/25 17:57:25;;;;;;;7.28;2.72;;;;;;;;;;10618039;28;20052;-81
2023/04/25 18:02:36;;;;;;;4.82;1.77;;;;;;;;;;10632860;22;20445;-87
2023/04/25 18:07:43;;;;;;;4.35;2.00;;;;;;;;;;10633106;28;20024;-86
2023/04/25 18:12:50;;;;;;;4.38;1.80;;;;;;;;;;10669859;28;20011;-87
2023/04/25 18:17:52;;;;;;;4.03;1.92;;;;;;;;;;10661236;28;20023;-87
2023/04/25 18:23:01;;;;;;;5.45;2.13;;;;;;;;;;10636982;28;20024;-86
2023/04/25 18:28:08;;;;;;;3.72;1.52;;;;;;;;;;10665601;28;20422;-86
2023/04/25 18:39:04;;;;;;;3.80;1.50;;;;;;;;;;10633414;28;20039;-86
2023/04/25 18:44:15;;;;;;;2.72;1.70;;;;;;;;;;10627651;28;20500;-86
2023/04/25 18:49:16;;;;;;;2.97;1.35;;;;;;;;;;10626647;28;20031;-86
2023/04/25 18:54:28;;;;;;;3.45;1.35;;;;;;;;;;10669460;27;20083;-87
2023/04/25 19:04:49;;;;;;;3.67;1.73;;;;;;;;;;10566031;22;20061;-86
2023/04/25 19:15:35;;;;;;;3.10;1.60;;;;;;;;;;10457446;22;20051;-80
